Time;durP1;ratioP1;P1;durP2;ratioP2;P2;SDS_P1;SDS_P2;PMS_P1;PMS_P2;Temp;Humidity;BMP_temperature;BMP_pressure;BME280_temperature;BME280_humidity;BME280_pressure;Samples;Min_cycle;Max_cycle;Signal;HPM_P1;HPM_P2
2022/09/02 00:01:03;;;;;;;17.58;9.48;;;;;;;15.61;100.00;92701.38;5046803;28;20029;-75
2022/09/02 00:03:33;;;;;;;18.70;10.63;;;;;;;15.58;100.00;92707.28;5029327;28;20048;-75
2022/09/02 00:05:59;;;;;;;14.73;9.05;;;;;;;15.58;100.00;92696.75;5031218;28;20499;-75
2022/09/02 00:08:25;;;;;;;13.20;8.63;;;;;;;15.58;100.00;92696.75;5020717;28;20096;-75
2022/09/02 00:10:51;;;;;;;12.52;8.25;;;;;;;15.57;100.00;92694.41;5026546;28;20450;-76
2022/09/02 00:13:18;;;;;;;14.05;8.00;;;;;;;15.47;100.00;92698.13;5049218;28;20064;-75
2022/09/02 00:15:46;;;;;;;11.25;8.18;;;;;;;15.45;100.00;92695.03;5029793;28;20040;-75
2022/09/02 00:18:12;;;;;;;11.85;8.15;;;;;;;15.46;100.00;92698.44;5027286;28;20021;-76
2022/09/02 00:20:41;;;;;;;13.23;8.20;;;;;;;15.44;100.00;92696.09;5011451;28;20423;-75
2022/09/02 00:23:08;;;;;;;11.68;8.30;;;;;;;15.47;100.00;92702.63;5011636;28;20083;-76
2022/09/02 00:25:35;;;;;;;12.57;8.93;;;;;;;15.50;100.00;92700.16;5027421;28;20025;-76
2022/09/02 00:28:01;;;;;;;13.18;8.63;;;;;;;15.51;100.00;92699.03;5030906;28;20057;-75
2022/09/02 00:30:27;;;;;;;13.57;9.00;;;;;;;15.53;100.00;92706.66;5012612;28;20042;-75
2022/09/02 00:32:53;;;;;;;14.85;9.90;;;;;;;15.53;100.00;92702.16;5026033;28;20041;-75
2022/09/02 00:35:19;;;;;;;15.00;10.35;;;;;;;15.57;100.00;92703.09;5004237;28;20029;-76
2022/09/02 00:37:44;;;;;;;13.43;9.82;;;;;;;15.60;100.00;92699.84;5030825;28;20048;-75
2022/09/02 00:40:11;;;;;;;15.60;10.77;;;;;;;15.61;100.00;92698.75;5018500;28;20037;-75
2022/09/02 00:42:37;;;;;;;14.82;10.10;;;;;;;15.62;100.00;92702.91;5026361;28;20037;-75
2022/09/02 00:45:05;;;;;;;17.30;9.95;;;;;;;15.61;100.00;92696.09;5030887;28;20051;-76
2022/09/02 00:47:31;;;;;;;16.20;11.35;;;;;;;15.62;100.00;92692.38;5029045;28;20114;-76
2022/09/02 00:49:58;;;;;;;15.50;11.98;;;;;;;15.59;100.00;92694.88;5024398;28;20038;-75
2022/09/02 00:52:38;;;;;;;17.98;11.48;;;;;;;15.55;100.00;92691.28;5009709;28;20096;-75
2022/09/02 00:55:09;;;;;;;16.05;11.48;;;;;;;15.54;100.00;92695.03;5011201;28;20026;-75
2022/09/02 00:57:42;;;;;;;15.20;10.70;;;;;;;15.56;100.00;92696.28;5029134;28;20029;-75
2022/09/02 01:00:19;;;;;;;20.30;12.65;;;;;;;15.57;100.00;92694.41;5026590;28;20400;-76
2022/09/02 01:02:51;;;;;;;14.85;11.65;;;;;;;15.60;100.00;92686.66;5009226;28;20129;-75
2022/09/02 01:05:19;;;;;;;15.27;10.43;;;;;;;15.62;100.00;92691.59;5009559;28;20037;-75
2022/09/02 01:07:45;;;;;;;11.60;9.25;;;;;;;15.61;100.00;92688.19;5028953;28;20067;-76
2022/09/02 01:10:16;;;;;;;12.07;9.88;;;;;;;15.55;100.00;92684.16;5031963;28;20510;-75
2022/09/02 01:12:42;;;;;;;13.40;8.88;;;;;;;15.76;100.00;92692.25;5035292;28;20037;-75
2022/09/02 01:15:09;;;;;;;12.48;9.15;;;;;;;15.57;100.00;92689.91;5036969;28;20053;-75
2022/09/02 01:17:40;;;;;;;14.20;10.52;;;;;;;15.40;100.00;92690.69;5035143;28;20103;-75
2022/09/02 01:20:11;;;;;;;20.20;11.63;;;;;;;15.39;100.00;92688.34;5035948;28;20037;-75
2022/09/02 01:22:38;;;;;;;15.93;10.82;;;;;;;15.39;100.00;92677.81;5017970;28;20065;-75
2022/09/02 01:25:15;;;;;;;15.57;9.82;;;;;;;15.39;100.00;92683.06;5016061;28;20026;-75
2022/09/02 01:27:41;;;;;;;18.67;10.27;;;;;;;15.39;100.00;92675.94;5052662;28;20476;-75
2022/09/02 01:30:09;;;;;;;12.82;9.98;;;;;;;15.40;100.00;92679.34;5035733;28;20495;-76
2022/09/02 01:32:35;;;;;;;13.25;9.85;;;;;;;15.43;100.00;92683.25;5033368;28;20033;-76
2022/09/02 01:35:01;;;;;;;15.18;10.15;;;;;;;15.40;100.00;92680.13;5035417;28;20044;-75
2022/09/02 01:37:26;;;;;;;13.73;11.10;;;;;;;15.38;100.00;92682.31;5034902;28;20083;-75
2022/09/02 01:39:53;;;;;;;14.32;10.13;;;;;;;15.52;100.00;92676.09;5034492;28;20032;-75
2022/09/02 01:42:19;;;;;;;17.23;10.90;;;;;;;15.46;100.00;92675.47;5035390;28;20060;-76
2022/09/02 01:44:45;;;;;;;14.80;10.65;;;;;;;15.44;100.00;92680.28;5035549;28;20066;-75
2022/09/02 01:47:14;;;;;;;14.60;11.73;;;;;;;15.43;100.00;92673.47;5018421;28;20484;-75
2022/09/02 01:49:40;;;;;;;17.48;11.80;;;;;;;15.34;100.00;92677.97;5035300;28;20072;-75
2022/09/02 01:52:07;;;;;;;16.55;11.48;;;;;;;15.32;100.00;92678.28;5017640;28;20048;-75
2022/09/02 01:54:33;;;;;;;15.88;11.90;;;;;;;15.33;100.00;92673.75;5052555;28;20033;-75
2022/09/02 01:56:59;;;;;;;14.82;11.77;;;;;;;15.31;100.00;92670.66;5050935;28;20053;-75
2022/09/02 01:59:24;;;;;;;21.00;12.25;;;;;;;15.35;100.00;92671.59;5035326;28;20088;-75
2022/09/02 02:01:52;;;;;;;17.33;11.35;;;;;;;15.34;100.00;92670.06;5034983;28;20025;-75
2022/09/02 02:04:18;;;;;;;16.00;10.73;;;;;;;15.33;100.00;92664.00;5033591;28;20044;-75
2022/09/02 02:06:47;;;;;;;13.63;10.18;;;;;;;15.34;100.00;92670.06;5034490;28;20045;-76
2022/09/02 02:09:15;;;;;;;17.60;11.18;;;;;;;15.35;100.00;92661.03;5036224;28;20495;-75
2022/09/02 02:11:42;;;;;;;17.33;10.68;;;;;;;15.33;100.00;92663.22;5053970;28;20049;-76
2022/09/02 02:14:10;;;;;;;14.75;11.07;;;;;;;15.33;100.00;92663.22;5039672;28;20095;-76
2022/09/02 02:16:36;;;;;;;15.27;10.77;;;;;;;15.27;100.00;92656.56;5035163;28;20120;-75
2022/09/02 02:19:03;;;;;;;15.65;11.25;;;;;;;15.24;100.00;92668.47;5034946;28;20124;-75
2022/09/02 02:21:29;;;;;;;14.52;10.57;;;;;;;15.23;100.00;92660.91;5032542;28;20501;-75
2022/09/02 02:23:56;;;;;;;15.95;11.43;;;;;;;15.21;100.00;92658.56;5025225;28;20117;-75
2022/09/02 02:26:21;;;;;;;14.85;9.57;;;;;;;15.29;100.00;92657.81;5038073;28;20046;-76
2022/09/02 02:28:48;;;;;;;13.75;9.75;;;;;;;15.19;100.00;92653.59;5030712;28;20042;-75
2022/09/02 02:31:14;;;;;;;12.38;9.57;;;;;;;15.13;100.00;92659.31;5015566;28;20030;-75
2022/09/02 02:33:39;;;;;;;13.25;9.10;;;;;;;15.16;100.00;92654.22;5031208;28;20052;-75
2022/09/02 02:36:07;;;;;;;13.73;8.57;;;;;;;15.06;100.00;92653.75;5012701;28;20128;-75
2022/09/02 02:38:35;;;;;;;12.77;8.73;;;;;;;15.04;100.00;92653.28;4995718;28;20380;-75
2022/09/02 02:41:05;;;;;;;13.82;9.07;;;;;;;14.99;100.00;92649.72;5043788;28;20038;-75
2022/09/02 02:43:32;;;;;;;12.82;9.65;;;;;;;14.92;100.00;92643.34;5031121;28;20037;-76
2022/09/02 02:45:58;;;;;;;13.70;9.75;;;;;;;14.92;100.00;92645.97;5018058;28;20026;-75
2022/09/02 02:48:23;;;;;;;13.50;9.65;;;;;;;14.90;100.00;92642.88;5028327;28;20446;-75
2022/09/02 02:50:49;;;;;;;13.30;9.45;;;;;;;14.87;100.00;92641.63;5022340;28;20041;-75
2022/09/02 02:53:16;;;;;;;11.80;9.23;;;;;;;14.87;100.00;92644.28;5031495;28;20224;-75
2022/09/02 02:55:43;;;;;;;14.55;9.40;;;;;;;14.87;100.00;92640.88;5029943;28;20029;-76
2022/09/02 02:58:10;;;;;;;14.07;9.60;;;;;;;14.85;100.00;92638.53;5031252;28;20049;-75
2022/09/02 03:00:37;;;;;;;12.68;9.45;;;;;;;14.88;100.00;92635.28;5030732;28;20045;-75
2022/09/02 03:03:06;;;;;;;13.77;9.15;;;;;;;14.87;100.00;92632.97;5031065;28;20067;-75
2022/09/02 03:05:34;;;;;;;12.85;8.55;;;;;;;14.86;100.00;92636.66;5030580;28;20486;-76
2022/09/02 03:08:01;;;;;;;10.70;7.85;;;;;;;14.84;100.00;92630.91;5030921;28;20045;-76
2022/09/02 03:10:32;;;;;;;10.95;7.72;;;;;;;14.78;100.00;92632.94;5030365;28;20128;-76
2022/09/02 03:12:59;;;;;;;11.57;7.20;;;;;;;14.75;100.00;92633.56;5030956;28;20128;-76
2022/09/02 03:15:25;;;;;;;14.80;7.60;;;;;;;14.69;100.00;92640.06;5031211;28;20507;-76
2022/09/02 03:17:52;;;;;;;8.15;5.40;;;;;;;14.63;100.00;92631.50;5013892;28;20128;-75
2022/09/02 03:20:19;;;;;;;16.30;5.57;;;;;;;14.61;100.00;92631.03;5027826;28;20203;-75
2022/09/02 03:22:53;;;;;;;9.18;5.22;;;;;;;14.58;100.00;92636.94;5016868;28;20029;-75
2022/09/02 03:25:19;;;;;;;8.98;5.03;;;;;;;14.56;100.00;92636.47;5030774;28;20061;-75
2022/09/02 03:27:47;;;;;;;7.32;4.60;;;;;;;14.56;100.00;92639.88;5045324;28;20037;-75
2022/09/02 03:30:19;;;;;;;7.80;4.30;;;;;;;14.54;100.00;92628.06;5047832;28;20095;-75
2022/09/02 03:32:44;;;;;;;5.63;3.70;;;;;;;14.51;100.00;92632.09;5030869;28;20539;-76
2022/09/02 03:35:14;;;;;;;8.27;3.60;;;;;;;14.48;100.00;92635.34;5032053;28;20381;-75
2022/09/02 03:37:40;;;;;;;5.57;2.97;;;;;;;14.43;100.00;92632.06;5029118;28;20033;-75
2022/09/02 03:40:11;;;;;;;8.50;3.60;;;;;;;14.37;100.00;92631.44;5014018;28;20033;-75
2022/09/02 03:42:37;;;;;;;5.38;3.88;;;;;;;14.35;100.00;92629.09;5045792;28;20083;-76
2022/09/02 03:45:07;;;;;;;4.95;3.40;;;;;;;14.28;100.00;92639.31;5030316;28;20446;-76
2022/09/02 03:47:33;;;;;;;5.22;2.92;;;;;;;14.25;100.00;92628.59;5029112;28;20121;-76
2022/09/02 03:49:58;;;;;;;7.18;2.72;;;;;;;14.21;100.00;92636.34;4995683;28;20140;-75
2022/09/02 03:52:24;;;;;;;4.30;2.60;;;;;;;14.23;100.00;92628.13;5026967;28;20488;-74
2022/09/02 03:54:51;;;;;;;5.75;2.22;;;;;;;14.10;100.00;92627.94;5028487;28;20400;-75
2022/09/02 03:57:19;;;;;;;3.97;2.50;;;;;;;14.07;100.00;92625.13;5030294;28;20067;-75
2022/09/02 03:59:45;;;;;;;5.57;2.42;;;;;;;14.05;100.00;92632.53;5028914;28;20045;-75
2022/09/02 04:02:11;;;;;;;4.30;2.13;;;;;;;13.98;100.00;92627.72;5046646;28;20549;-75
2022/09/02 04:04:37;;;;;;;4.93;2.10;;;;;;;13.91;100.00;92622.88;5014860;28;20041;-75
2022/09/02 04:07:03;;;;;;;4.35;2.30;;;;;;;13.89;100.00;92621.63;5013644;28;20098;-74
2022/09/02 04:09:29;;;;;;;3.60;2.25;;;;;;;13.85;100.00;92615.44;5028551;28;20037;-75
2022/09/02 04:11:54;;;;;;;4.32;2.22;;;;;;;13.80;100.00;92618.97;5023460;28;20049;-74
2022/09/02 04:14:21;;;;;;;4.60;2.10;;;;;;;13.77;100.00;92613.53;5040943;28;20320;-75
2022/09/02 04:16:48;;;;;;;3.47;2.03;;;;;;;13.77;100.00;92613.53;5030014;28;20583;-75
2022/09/02 04:19:13;;;;;;;4.35;2.30;;;;;;;13.78;100.00;92610.63;5007602;28;20064;-75
2022/09/02 04:21:40;;;;;;;4.30;2.30;;;;;;;13.72;100.00;92609.19;5026974;28;20137;-75
2022/09/02 04:24:09;;;;;;;3.72;2.40;;;;;;;13.72;100.00;92617.84;5030362;28;20037;-75
2022/09/02 04:26:36;;;;;;;5.97;2.65;;;;;;;13.66;100.00;92615.66;5029657;28;20117;-75
2022/09/02 04:29:02;;;;;;;3.70;2.30;;;;;;;13.64;100.00;92612.53;5026131;28;20026;-75
2022/09/02 04:31:30;;;;;;;4.95;2.70;;;;;;;13.60;100.00;92614.22;5023872;28;20030;-76
2022/09/02 04:33:57;;;;;;;4.18;2.50;;;;;;;13.61;100.00;92615.78;5017826;28;20034;-77
2022/09/02 04:36:25;;;;;;;4.43;2.60;;;;;;;13.59;100.00;92610.03;5047246;28;20051;-75
2022/09/02 04:38:54;;;;;;;5.82;3.05;;;;;;;13.62;100.00;92609.44;4998218;28;20033;-75
2022/09/02 04:41:29;;;;;;;6.70;3.17;;;;;;;13.68;100.00;92608.22;5030220;28;20033;-75
2022/09/02 04:43:58;;;;;;;7.20;3.20;;;;;;;13.68;100.00;92605.59;5016404;28;20527;-77
2022/09/02 04:46:27;;;;;;;6.35;3.10;;;;;;;13.68;100.00;92609.00;5029780;28;20037;-75
2022/09/02 04:48:55;;;;;;;5.53;3.10;;;;;;;13.68;100.00;92608.22;5013719;28;20444;-76
2022/09/02 04:51:23;;;;;;;9.02;3.25;;;;;;;13.65;100.00;92616.72;5029987;28;20132;-76
2022/09/02 04:53:52;;;;;;;4.60;2.95;;;;;;;13.63;100.00;92619.66;5029955;28;20033;-75
2022/09/02 04:56:22;;;;;;;6.07;2.92;;;;;;;13.62;100.00;92615.50;5029834;28;20030;-75
2022/09/02 04:58:51;;;;;;;5.68;3.05;;;;;;;13.68;100.00;92619.53;5043145;28;20030;-77
2022/09/02 05:01:27;;;;;;;7.32;3.33;;;;;;;13.71;100.00;92612.88;5009820;28;20060;-75
2022/09/02 05:03:54;;;;;;;5.50;3.08;;;;;;;13.77;100.00;92616.94;5009777;28;20038;-76
2022/09/02 05:06:26;;;;;;;6.75;3.00;;;;;;;13.78;100.00;92618.50;5028810;28;20145;-79
2022/09/02 05:08:58;;;;;;;5.05;3.00;;;;;;;13.81;100.00;92620.53;5030980;28;20075;-75
2022/09/02 05:11:28;;;;;;;4.90;2.90;;;;;;;13.84;100.00;92621.78;5045742;28;20045;-76
2022/09/02 05:13:57;;;;;;;4.15;2.60;;;;;;;13.89;100.00;92621.63;4996952;28;20033;-75
2022/09/02 05:16:31;;;;;;;6.40;2.85;;;;;;;13.89;100.00;92614.53;5029580;28;20036;-76
2022/09/02 05:18:59;;;;;;;6.35;2.70;;;;;;;13.95;100.00;92621.19;5029673;28;20041;-77
2022/09/02 05:21:31;;;;;;;4.53;2.85;;;;;;;14.02;100.00;92614.72;5029646;28;20029;-76
2022/09/02 05:23:58;;;;;;;6.13;2.90;;;;;;;14.06;100.00;92623.59;4996914;28;20044;-76
2022/09/02 05:26:24;;;;;;;4.47;2.75;;;;;;;14.11;100.00;92620.81;5030079;28;20044;-76
2022/09/02 05:28:51;;;;;;;6.18;3.10;;;;;;;14.19;100.00;92627.19;5029762;28;20037;-76
2022/09/02 05:31:18;;;;;;;4.57;3.22;;;;;;;14.23;100.00;92628.91;5029784;28;20041;-76
2022/09/02 05:33:44;;;;;;;5.70;3.08;;;;;;;14.29;100.00;92634.81;5046187;28;20076;-76
2022/09/02 05:36:19;;;;;;;5.60;3.00;;;;;;;14.35;100.00;92642.25;5029364;28;20064;-76
2022/09/02 05:38:46;;;;;;;5.70;3.10;;;;;;;14.44;100.00;92644.16;5046452;28;20096;-77
2022/09/02 05:41:17;;;;;;;5.95;3.78;;;;;;;14.53;100.00;92642.31;5014931;28;20025;-77
2022/09/02 05:43:43;;;;;;;5.18;3.50;;;;;;;14.58;100.00;92650.88;5048088;28;20037;-76
2022/09/02 05:46:13;;;;;;;5.25;3.35;;;;;;;14.64;100.00;92654.16;5030360;28;20038;-76
2022/09/02 05:51:24;;;;;;;4.97;3.38;;;;;;;14.77;100.00;92663.81;5031083;28;20361;-76
2022/09/02 05:53:52;;;;;;;5.32;3.25;;;;;;;14.84;100.00;92652.00;5030578;28;20087;-76
2022/09/02 05:56:19;;;;;;;7.13;3.10;;;;;;;14.89;100.00;92659.78;4998526;28;20083;-76
2022/09/02 05:58:45;;;;;;;6.10;3.13;;;;;;;14.94;100.00;92657.00;5035182;28;20034;-77
2022/09/02 06:01:14;;;;;;;4.45;3.05;;;;;;;15.00;100.00;92655.78;5034254;28;20021;-77
2022/09/02 06:03:40;;;;;;;5.32;2.85;;;;;;;15.07;100.00;92658.72;5034779;28;20065;-77
2022/09/02 06:06:06;;;;;;;5.85;3.10;;;;;;;15.16;100.00;92659.50;5034639;28;20040;-77
2022/09/02 06:08:35;;;;;;;7.00;2.90;;;;;;;15.27;100.00;92659.19;5018400;28;20029;-77
2022/09/02 06:11:02;;;;;;;8.43;3.55;;;;;;;15.38;100.00;92660.44;5034787;28;20080;-77
2022/09/02 06:13:29;;;;;;;5.10;3.30;;;;;;;15.48;100.00;92654.84;5034469;28;20037;-76
2022/09/02 06:15:56;;;;;;;4.95;2.92;;;;;;;15.58;100.00;92657.16;5034990;28;20045;-76
2022/09/02 06:18:25;;;;;;;5.57;3.22;;;;;;;15.70;100.00;92653.09;5002818;28;20406;-77
2022/09/02 06:20:51;;;;;;;5.40;3.10;;;;;;;15.82;100.00;92654.03;5018238;28;20048;-76
2022/09/02 06:23:17;;;;;;;4.25;3.08;;;;;;;15.91;100.00;92664.56;5035114;28;20064;-77
2022/09/02 06:25:45;;;;;;;4.80;2.78;;;;;;;15.95;100.00;92662.84;5018430;28;20377;-76
2022/09/02 06:28:13;;;;;;;3.97;2.70;;;;;;;16.07;100.00;92662.19;5016190;28;20029;-77
2022/09/02 06:30:45;;;;;;;4.63;2.92;;;;;;;16.18;100.00;92657.34;5015964;28;20052;-76
2022/09/02 06:33:11;;;;;;;4.32;2.90;;;;;;;16.31;100.00;92652.97;5032546;28;20029;-77
2022/09/02 06:35:43;;;;;;;6.25;2.90;;;;;;;16.28;100.00;92662.31;5032241;28;20415;-76
2022/09/02 06:38:11;;;;;;;4.57;2.78;;;;;;;16.37;100.00;92662.25;5032159;28;20040;-76
2022/09/02 06:40:48;;;;;;;5.18;2.72;;;;;;;16.42;100.00;92670.78;5015910;28;20040;-77
2022/09/02 06:43:14;;;;;;;5.00;2.70;;;;;;;16.47;100.00;92666.41;5033512;28;20044;-77
2022/09/02 06:45:52;;;;;;;4.30;2.70;;;;;;;16.46;100.00;92676.22;5032159;28;20033;-76
2022/09/02 06:48:18;;;;;;;6.32;2.70;;;;;;;16.50;100.00;92671.81;4999140;28;20041;-77
2022/09/02 06:50:45;;;;;;;4.45;2.67;;;;;;;16.55;100.00;92676.16;5031365;28;20041;-76
2022/09/02 06:53:12;;;;;;;5.65;2.55;;;;;;;16.54;100.00;92674.63;5031851;28;20041;-76
2022/09/02 06:55:41;;;;;;;4.35;2.70;;;;;;;16.61;100.00;92678.31;5031981;28;20025;-77
2022/09/02 06:58:09;;;;;;;4.55;2.33;;;;;;;16.71;98.28;92677.19;5031688;28;20037;-77
2022/09/02 07:00:38;;;;;;;3.88;2.40;;;;;;;16.77;98.26;92675.88;5032069;28;20510;-77
2022/09/02 07:05:59;;;;;;;6.28;2.90;;;;;;;16.88;98.57;92668.41;5033124;28;20458;-76
2022/09/02 07:08:28;;;;;;;4.93;2.35;;;;;;;16.93;97.25;92678.00;5031411;28;20470;-77
2022/09/02 07:10:54;;;;;;;6.53;2.38;;;;;;;16.97;98.03;92674.41;5031604;28;20046;-76
2022/09/02 07:13:20;;;;;;;5.65;2.60;;;;;;;17.16;95.51;92676.63;5032099;28;20037;-76
2022/09/02 07:15:46;;;;;;;5.72;2.60;;;;;;;17.27;91.83;92675.16;5031679;28;20045;-76
2022/09/02 07:18:12;;;;;;;8.63;3.10;;;;;;;17.25;93.25;92671.28;5031584;28;20044;-76
2022/09/02 07:20:38;;;;;;;5.20;3.08;;;;;;;17.39;95.04;92677.09;5031590;28;20099;-76
2022/09/02 07:23:04;;;;;;;4.35;2.78;;;;;;;17.55;95.89;92671.97;5031597;28;20033;-76
2022/09/02 07:25:32;;;;;;;13.95;3.45;;;;;;;17.57;92.07;92683.00;5031926;28;20041;-76
2022/09/02 07:27:57;;;;;;;5.38;2.90;;;;;;;17.65;92.37;92674.25;5015135;28;20040;-76
2022/09/02 07:30:24;;;;;;;5.47;3.00;;;;;;;17.63;93.00;92679.06;5015181;28;20037;-76
2022/09/02 07:33:13;;;;;;;6.57;3.00;;;;;;;17.79;92.48;92683.78;5031226;28;20053;-76
2022/09/02 07:35:42;;;;;;;8.30;3.08;;;;;;;17.76;90.62;92681.75;5015697;28;20037;-76
2022/09/02 07:38:09;;;;;;;5.40;2.65;;;;;;;17.91;89.53;92689.13;5032462;28;20026;-77
2022/09/02 07:40:37;;;;;;;4.47;2.45;;;;;;;17.93;90.27;92681.63;5034236;28;20044;-77
2022/09/02 07:43:05;;;;;;;4.00;2.30;;;;;;;18.16;83.96;92678.59;5032519;28;20526;-77
2022/09/02 07:45:34;;;;;;;4.85;2.30;;;;;;;18.21;80.58;92684.44;5032679;28;20304;-77
2022/09/02 07:48:01;;;;;;;4.43;2.30;;;;;;;18.00;84.11;92687.16;4983963;28;20029;-77
2022/09/02 07:50:28;;;;;;;4.03;2.17;;;;;;;18.02;80.84;92684.97;4983981;28;20041;-76
2022/09/02 07:52:57;;;;;;;6.22;2.15;;;;;;;18.08;81.74;92693.47;5032657;28;20526;-77
2022/09/02 07:55:25;;;;;;;7.22;2.45;;;;;;;17.98;82.98;92691.25;5032031;28;20396;-77
2022/09/02 07:57:55;;;;;;;4.20;2.35;;;;;;;18.07;79.52;92682.09;5032049;28;20025;-77
2022/09/02 08:00:21;;;;;;;3.83;2.30;;;;;;;18.28;78.25;92686.56;5032174;28;20033;-77
2022/09/02 08:02:49;;;;;;;4.10;2.10;;;;;;;18.26;77.15;92684.25;5015960;28;20079;-76
2022/09/02 08:05:21;;;;;;;4.97;2.63;;;;;;;18.42;77.75;92688.94;5016679;28;20034;-77
2022/09/02 08:07:47;;;;;;;5.05;2.60;;;;;;;18.31;78.46;92683.28;5031954;28;20099;-77
2022/09/02 08:10:14;;;;;;;5.25;2.40;;;;;;;18.36;78.50;92685.69;5032107;28;20049;-77
2022/09/02 08:12:41;;;;;;;6.47;2.55;;;;;;;18.57;77.55;92682.19;5033545;28;20145;-77
2022/09/02 08:15:08;;;;;;;3.78;2.33;;;;;;;19.00;75.55;92680.88;5034005;28;20057;-77
2022/09/02 08:17:33;;;;;;;4.18;2.60;;;;;;;19.68;71.82;92682.81;5017830;28;20033;-77
2022/09/02 08:20:00;;;;;;;4.47;2.50;;;;;;;20.05;71.92;92685.38;5032410;28;20407;-77
2022/09/02 08:22:33;;;;;;;5.25;2.60;;;;;;;20.21;69.45;92685.41;5033355;28;20714;-77
2022/09/02 08:24:59;;;;;;;4.35;2.30;;;;;;;20.41;68.96;92679.06;5032835;28;20045;-77
2022/09/02 08:27:26;;;;;;;4.75;2.05;;;;;;;20.51;69.44;92677.78;5034514;28;20113;-77
2022/09/02 08:29:52;;;;;;;6.65;2.35;;;;;;;19.63;64.76;92678.53;5033262;28;20041;-77
2022/09/02 08:32:18;;;;;;;5.28;2.10;;;;;;;19.76;67.45;92676.63;5034291;28;20047;-77
2022/09/02 08:34:43;;;;;;;4.28;2.40;;;;;;;19.61;69.52;92686.06;5032869;28;20115;-77
2022/09/02 08:37:09;;;;;;;6.72;2.80;;;;;;;19.76;69.50;92680.06;5032219;28;20112;-77
2022/09/02 08:39:35;;;;;;;4.85;2.20;;;;;;;19.39;68.20;92686.59;5033887;28;20231;-76
2022/09/02 08:42:13;;;;;;;6.47;2.40;;;;;;;19.01;68.61;92685.09;5032724;28;20037;-76
2022/09/02 08:44:40;;;;;;;3.88;2.45;;;;;;;18.89;73.75;92681.34;5032579;28;20495;-76
2022/09/02 08:47:12;;;;;;;4.57;2.40;;;;;;;19.30;71.00;92684.81;5015637;28;20067;-78
2022/09/02 08:49:43;;;;;;;4.18;2.60;;;;;;;19.44;72.61;92686.34;5033026;28;20076;-77
2022/09/02 08:52:19;;;;;;;4.40;2.50;;;;;;;19.52;69.93;92688.06;5033279;28;20042;-77
2022/09/02 08:54:54;;;;;;;5.57;2.45;;;;;;;19.96;71.28;92677.53;5033475;28;20487;-77
2022/09/02 08:57:24;;;;;;;6.28;2.60;;;;;;;19.81;70.04;92683.59;5034456;28;20555;-77
2022/09/02 08:59:49;;;;;;;3.70;2.20;;;;;;;19.80;68.69;92677.50;5017933;28;20040;-77
2022/09/02 09:02:34;;;;;;;6.70;2.70;;;;;;;19.69;73.45;92679.88;5034222;28;20419;-78
2022/09/02 09:05:14;;;;;;;4.68;2.70;;;;;;;19.75;72.84;92677.75;5034895;28;20053;-78
2022/09/02 09:07:58;;;;;;;5.85;2.80;;;;;;;19.98;73.14;92685.19;5032949;28;20136;-77
2022/09/02 09:10:43;;;;;;;5.13;2.90;;;;;;;20.10;72.11;92680.56;5033530;28;20047;-77
2022/09/02 09:13:34;;;;;;;8.63;3.80;;;;;;;19.88;76.42;92683.78;5033279;28;20132;-77
2022/09/02 09:16:09;;;;;;;6.18;3.78;;;;;;;19.68;81.37;92672.19;5033682;28;20065;-77
2022/09/02 09:18:42;;;;;;;5.50;3.58;;;;;;;19.51;80.28;92674.03;5034076;28;20384;-78
2022/09/02 09:21:09;;;;;;;6.75;4.45;;;;;;;18.82;84.98;92667.84;5031348;28;20029;-76
2022/09/02 09:23:39;;;;;;;6.75;5.05;;;;;;;18.69;87.21;92675.03;5030880;28;20083;-76
2022/09/02 09:26:10;;;;;;;6.82;4.43;;;;;;;18.67;90.11;92679.88;5030600;28;20449;-76
2022/09/02 09:28:41;;;;;;;6.65;3.17;;;;;;;18.67;82.66;92681.75;5029649;28;20034;-76
2022/09/02 09:31:13;;;;;;;5.40;3.10;;;;;;;19.17;79.96;92683.28;5048278;28;20056;-76
2022/09/02 09:33:40;;;;;;;5.55;3.22;;;;;;;19.21;80.23;92683.41;5050498;28;20037;-76
2022/09/02 09:36:06;;;;;;;6.35;3.20;;;;;;;19.19;79.44;92686.41;5035281;28;20475;-77
2022/09/02 09:38:34;;;;;;;5.55;3.40;;;;;;;19.20;81.77;92685.28;5033334;28;20034;-76
2022/09/02 09:41:27;;;;;;;7.85;4.10;;;;;;;19.20;85.04;92684.50;5034599;28;20045;-76
2022/09/02 09:43:53;;;;;;;9.98;4.40;;;;;;;18.80;84.14;92677.25;5033103;28;20033;-77
2022/09/02 09:46:26;;;;;;;5.63;3.70;;;;;;;18.89;83.55;92664.63;5034887;28;20395;-76
2022/09/02 09:48:52;;;;;;;5.35;3.60;;;;;;;18.90;82.27;92666.19;5033264;28;20560;-76
2022/09/02 09:51:18;;;;;;;6.90;3.20;;;;;;;18.92;79.41;92666.63;5034982;28;20090;-78
2022/09/02 09:53:44;;;;;;;7.70;2.92;;;;;;;19.00;75.03;92667.63;5035127;28;20025;-76
2022/09/02 09:56:12;;;;;;;4.57;2.75;;;;;;;18.71;74.34;92667.50;5042888;28;20140;-76
2022/09/02 09:58:38;;;;;;;5.85;3.00;;;;;;;18.58;76.20;92663.31;5028986;28;20042;-77
2022/09/02 10:01:10;;;;;;;5.50;2.88;;;;;;;18.49;76.00;92660.75;5014535;28;20040;-77
2022/09/02 10:03:42;;;;;;;4.28;2.92;;;;;;;18.44;75.72;92662.84;5029887;28;20045;-76
2022/09/02 10:06:34;;;;;;;4.85;2.95;;;;;;;18.33;76.52;92662.53;5029650;28;20392;-77
2022/09/02 10:09:21;;;;;;;5.93;3.10;;;;;;;18.41;77.60;92664.28;5033690;28;20030;-76
2022/09/02 10:11:59;;;;;;;5.30;3.25;;;;;;;18.68;75.02;92654.91;5033965;28;20056;-73
2022/09/02 10:14:39;;;;;;;5.93;2.90;;;;;;;19.42;75.44;92651.41;5034915;28;20034;-77
2022/09/02 10:17:13;;;;;;;4.95;2.95;;;;;;;19.24;75.01;92653.53;5034392;28;20037;-77
2022/09/02 10:20:09;;;;;;;6.53;3.00;;;;;;;19.56;73.69;92652.53;5049291;28;20041;-76
2022/09/02 10:22:47;;;;;;;6.30;3.35;;;;;;;19.89;72.98;92653.44;5032661;28;20499;-76
2022/09/02 10:25:32;;;;;;;8.18;2.90;;;;;;;19.80;73.68;92652.84;5034052;28;20033;-77
2022/09/02 10:28:06;;;;;;;8.13;2.97;;;;;;;19.80;73.51;92655.50;5034053;28;20175;-77
2022/09/02 10:30:42;;;;;;;5.93;3.20;;;;;;;19.78;72.34;92652.41;5038552;28;20037;-76
2022/09/02 10:33:29;;;;;;;4.55;3.00;;;;;;;19.64;74.37;92652.75;5052923;28;20529;-76
2022/09/02 10:36:06;;;;;;;5.15;3.13;;;;;;;19.59;76.05;92651.13;5052217;28;20037;-76
2022/09/02 10:38:47;;;;;;;5.55;2.67;;;;;;;19.71;73.03;92652.97;5035282;28;20057;-76
2022/09/02 10:41:31;;;;;;;5.28;2.70;;;;;;;19.81;71.41;92647.16;5041458;28;20048;-79
2022/09/02 10:44:07;;;;;;;5.93;2.90;;;;;;;19.89;72.04;92645.47;5040863;28;20513;-79
2022/09/02 10:47:25;;;;;;;6.65;2.90;;;;;;;19.91;71.05;92637.94;5040669;28;20037;-79
2022/09/02 10:50:01;;;;;;;7.88;2.88;;;;;;;19.55;73.36;92639.63;5036420;28;20056;-79
2022/09/02 10:53:14;;;;;;;4.75;3.08;;;;;;;19.33;74.73;92633.72;5042416;28;20116;-79
2022/09/02 10:56:33;;;;;;;5.32;3.03;;;;;;;19.33;72.88;92633.72;4981302;28;20176;-79
2022/09/02 10:59:05;;;;;;;4.20;2.72;;;;;;;19.48;73.16;92628.81;4981007;28;20093;-79
2022/09/02 11:01:55;;;;;;;7.25;3.08;;;;;;;19.45;71.89;92629.47;4980645;28;20051;-79
2022/09/02 11:04:30;;;;;;;6.63;2.92;;;;;;;19.76;72.91;92629.59;5024069;28;20088;-79
2022/09/02 11:06:57;;;;;;;4.93;3.00;;;;;;;19.80;70.78;92621.72;5041954;28;20183;-79
2022/09/02 11:09:30;;;;;;;5.22;2.80;;;;;;;19.64;70.84;92626.97;5039500;28;20037;-79
2022/09/02 11:12:27;;;;;;;5.70;2.72;;;;;;;20.05;71.42;92614.41;5041505;28;20075;-79
2022/09/02 11:15:15;;;;;;;6.00;2.60;;;;;;;20.64;68.53;92609.34;5035475;28;20065;-80
2022/09/02 11:17:54;;;;;;;5.00;2.45;;;;;;;21.08;62.84;92603.84;5041170;28;20040;-79
2022/09/02 11:20:40;;;;;;;4.82;2.53;;;;;;;21.18;64.70;92608.63;5040680;28;20037;-79
2022/09/02 11:23:05;;;;;;;6.07;2.50;;;;;;;21.17;61.87;92605.19;5041550;28;20048;-79
2022/09/02 11:25:54;;;;;;;5.25;2.72;;;;;;;21.18;59.81;92608.63;5040869;28;20037;-79
2022/09/02 11:28:43;;;;;;;4.05;2.33;;;;;;;20.83;58.95;92604.09;5039720;28;20033;-78
2022/09/02 11:31:19;;;;;;;4.05;2.17;;;;;;;21.17;59.20;92604.44;5041901;28;20044;-79
2022/09/02 11:34:09;;;;;;;7.18;2.40;;;;;;;20.86;60.74;92603.38;5040234;28;20068;-80
2022/09/02 11:36:39;;;;;;;3.80;2.40;;;;;;;20.94;64.00;92593.66;5035633;28;20022;-76
2022/09/02 11:39:16;;;;;;;5.97;2.47;;;;;;;21.15;64.40;92588.78;5016699;28;20095;-77
2022/09/02 11:42:10;;;;;;;5.43;2.70;;;;;;;21.02;61.76;92595.38;5034119;28;20457;-77
2022/09/02 11:45:04;;;;;;;6.88;3.00;;;;;;;21.12;63.56;92584.19;5033544;28;20040;-77